sensor_id;sensor_type;location;lat;lon;timestamp;pressure;altitude;pressure_sealevel;temperature;humidity
77454;BME280;66538;53.150;18.160;2023-02-04T00:01:06;101309.05;;;0.01;87.76
77454;BME280;66538;53.150;18.160;2023-02-04T00:03:33;101325.00;;;0.02;87.74
77454;BME280;66538;53.150;18.160;2023-02-04T00:06:00;101332.94;;;-0.03;87.50
77454;BME280;66538;53.150;18.160;2023-02-04T00:08:26;101349.02;;;-0.01;87.41
77454;BME280;66538;53.150;18.160;2023-02-04T00:10:53;101355.73;;;0.01;87.19
77454;BME280;66538;53.150;18.160;2023-02-04T00:13:19;101364.20;;;-0.03;87.51
77454;BME280;66538;53.150;18.160;2023-02-04T00:15:46;101367.06;;;-0.06;86.86
77454;BME280;66538;53.150;18.160;2023-02-04T00:18:12;101378.89;;;-0.05;86.85
77454;BME280;66538;53.150;18.160;2023-02-04T00:20:39;101386.35;;;-0.07;86.61
77454;BME280;66538;53.150;18.160;2023-02-04T00:23:06;101401.63;;;-0.09;86.36
77454;BME280;66538;53.150;18.160;2023-02-04T00:25:32;101413.70;;;-0.11;86.28
77454;BME280;66538;53.150;18.160;2023-02-04T00:27:59;101426.15;;;-0.14;85.98
77454;BME280;66538;53.150;18.160;2023-02-04T00:30:25;101441.05;;;-0.13;86.00
77454;BME280;66538;53.150;18.160;2023-02-04T00:32:52;101446.96;;;-0.21;85.60
77454;BME280;66538;53.150;18.160;2023-02-04T00:35:21;101442.01;;;-0.36;85.61
77454;BME280;66538;53.150;18.160;2023-02-04T00:37:49;101459.43;;;-0.24;85.44
77454;BME280;66538;53.150;18.160;2023-02-04T00:40:16;101465.89;;;-0.29;85.04
77454;BME280;66538;53.150;18.160;2023-02-04T00:42:42;101477.48;;;-0.28;85.29
77454;BME280;66538;53.150;18.160;2023-02-04T00:45:10;101484.80;;;-0.22;84.79
77454;BME280;66538;53.150;18.160;2023-02-04T00:47:38;101491.51;;;-0.28;84.79
77454;BME280;66538;53.150;18.160;2023-02-04T00:50:05;101502.40;;;-0.22;84.79
77454;BME280;66538;53.150;18.160;2023-02-04T00:52:32;101509.48;;;-0.26;84.80
77454;BME280;66538;53.150;18.160;2023-02-04T00:54:58;101529.95;;;-0.16;84.90
77454;BME280;66538;53.150;18.160;2023-02-04T00:57:25;101534.59;;;-0.19;84.86
77454;BME280;66538;53.150;18.160;2023-02-04T00:59:51;101532.48;;;-0.34;84.82
77454;BME280;66538;53.150;18.160;2023-02-04T01:02:18;101548.38;;;-0.29;84.86
77454;BME280;66538;53.150;18.160;2023-02-04T01:04:45;101554.45;;;-0.29;85.10
77454;BME280;66538;53.150;18.160;2023-02-04T01:07:11;101562.30;;;-0.31;85.18
77454;BME280;66538;53.150;18.160;2023-02-04T01:09:38;101582.18;;;-0.15;84.77
77454;BME280;66538;53.150;18.160;2023-02-04T01:12:04;101591.59;;;-0.18;84.70
77454;BME280;66538;53.150;18.160;2023-02-04T01:14:31;101582.91;;;-0.47;84.98
77454;BME280;66538;53.150;18.160;2023-02-04T01:16:58;101587.04;;;-0.56;85.32
77454;BME280;66538;53.150;18.160;2023-02-04T01:19:25;101604.24;;;-0.53;85.25
77454;BME280;66538;53.150;18.160;2023-02-04T01:21:53;101615.23;;;-0.51;85.47
77454;BME280;66538;53.150;18.160;2023-02-04T01:24:19;101639.92;;;-0.36;85.25
77454;BME280;66538;53.150;18.160;2023-02-04T01:27:05;101655.77;;;-0.37;85.36
77454;BME280;66538;53.150;18.160;2023-02-04T01:29:31;101655.17;;;-0.51;85.01
77454;BME280;66538;53.150;18.160;2023-02-04T01:31:58;101651.02;;;-0.78;85.20
77454;BME280;66538;53.150;18.160;2023-02-04T01:34:25;101665.89;;;-0.79;85.47
77454;BME280;66538;53.150;18.160;2023-02-04T01:36:51;101681.75;;;-0.78;85.55
77454;BME280;66538;53.150;18.160;2023-02-04T01:39:18;101687.70;;;-0.80;85.34
77454;BME280;66538;53.150;18.160;2023-02-04T01:41:46;101708.83;;;-0.63;85.10
77454;BME280;66538;53.150;18.160;2023-02-04T01:44:13;101718.40;;;-0.67;84.97
77454;BME280;66538;53.150;18.160;2023-02-04T01:46:41;101721.05;;;-0.86;85.20
77454;BME280;66538;53.150;18.160;2023-02-04T01:49:09;101731.55;;;-0.92;85.50
77454;BME280;66538;53.150;18.160;2023-02-04T01:51:36;101743.63;;;-0.92;85.09
77454;BME280;66538;53.150;18.160;2023-02-04T01:54:04;101757.25;;;-0.98;84.94
77454;BME280;66538;53.150;18.160;2023-02-04T01:56:32;101769.88;;;-1.04;85.32
77454;BME280;66538;53.150;18.160;2023-02-04T01:58:58;101783.43;;;-1.02;84.86
77454;BME280;66538;53.150;18.160;2023-02-04T02:01:33;101794.20;;;-0.99;85.08
77454;BME280;66538;53.150;18.160;2023-02-04T02:04:01;101790.77;;;-1.14;84.92
77454;BME280;66538;53.150;18.160;2023-02-04T02:06:28;101799.92;;;-1.14;84.97
77454;BME280;66538;53.150;18.160;2023-02-04T02:08:55;101811.20;;;-1.17;84.66
77454;BME280;66538;53.150;18.160;2023-02-04T02:11:25;101831.34;;;-1.09;84.71
77454;BME280;66538;53.150;18.160;2023-02-04T02:13:53;101846.36;;;-1.09;84.73
77454;BME280;66538;53.150;18.160;2023-02-04T02:16:20;101858.11;;;-1.12;84.52
77454;BME280;66538;53.150;18.160;2023-02-04T02:18:47;101867.10;;;-1.13;84.54
77454;BME280;66538;53.150;18.160;2023-02-04T02:21:17;101869.52;;;-1.17;84.85
77454;BME280;66538;53.150;18.160;2023-02-04T02:23:50;101874.99;;;-1.17;84.52
77454;BME280;66538;53.150;18.160;2023-02-04T02:26:19;101886.35;;;-1.20;84.45
77454;BME280;66538;53.150;18.160;2023-02-04T02:28:48;101887.14;;;-1.24;84.72
77454;BME280;66538;53.150;18.160;2023-02-04T02:31:17;101899.92;;;-1.24;84.33
77454;BME280;66538;53.150;18.160;2023-02-04T02:33:45;101908.88;;;-1.26;84.02
77454;BME280;66538;53.150;18.160;2023-02-04T02:36:13;101918.46;;;-1.31;84.56
77454;BME280;66538;53.150;18.160;2023-02-04T02:38:40;101925.95;;;-1.30;84.48
77454;BME280;66538;53.150;18.160;2023-02-04T02:41:07;101934.55;;;-1.34;84.20
77454;BME280;66538;53.150;18.160;2023-02-04T02:43:37;101941.96;;;-1.37;84.05
77454;BME280;66538;53.150;18.160;2023-02-04T02:46:04;101954.63;;;-1.36;84.17
77454;BME280;66538;53.150;18.160;2023-02-04T02:48:32;101969.34;;;-1.36;84.19
77454;BME280;66538;53.150;18.160;2023-02-04T02:50:59;101976.11;;;-1.32;84.02
77454;BME280;66538;53.150;18.160;2023-02-04T02:53:25;101984.29;;;-1.29;83.73
77454;BME280;66538;53.150;18.160;2023-02-04T02:55:52;101988.59;;;-1.28;83.69
77454;BME280;66538;53.150;18.160;2023-02-04T02:58:28;101993.58;;;-1.26;84.02
77454;BME280;66538;53.150;18.160;2023-02-04T03:01:04;101998.59;;;-1.23;83.85
77454;BME280;66538;53.150;18.160;2023-02-04T03:03:35;101992.23;;;-1.20;83.70
77454;BME280;66538;53.150;18.160;2023-02-04T03:06:12;102000.23;;;-1.14;84.00
77454;BME280;66538;53.150;18.160;2023-02-04T03:08:42;102010.98;;;-1.11;83.80
77454;BME280;66538;53.150;18.160;2023-02-04T03:11:10;102025.98;;;-1.14;83.90
77454;BME280;66538;53.150;18.160;2023-02-04T03:13:37;102041.51;;;-1.08;83.84
77454;BME280;66538;53.150;18.160;2023-02-04T03:16:05;102051.05;;;-1.08;84.31
77454;BME280;66538;53.150;18.160;2023-02-04T03:18:34;102063.29;;;-1.07;84.10
77454;BME280;66538;53.150;18.160;2023-02-04T03:21:02;102071.84;;;-1.09;83.96
77454;BME280;66538;53.150;18.160;2023-02-04T03:23:32;102084.45;;;-1.11;83.88
77454;BME280;66538;53.150;18.160;2023-02-04T03:25:59;102091.67;;;-1.12;83.92
77454;BME280;66538;53.150;18.160;2023-02-04T03:28:26;102100.45;;;-1.14;83.80
77454;BME280;66538;53.150;18.160;2023-02-04T03:30:53;102102.83;;;-1.25;83.73
77454;BME280;66538;53.150;18.160;2023-02-04T03:33:26;102113.23;;;-1.28;83.65
77454;BME280;66538;53.150;18.160;2023-02-04T03:35:57;102128.60;;;-1.30;83.93
77454;BME280;66538;53.150;18.160;2023-02-04T03:38:24;102138.02;;;-1.32;83.67
77454;BME280;66538;53.150;18.160;2023-02-04T03:40:51;102148.33;;;-1.34;83.91
77454;BME280;66538;53.150;18.160;2023-02-04T03:43:18;102154.88;;;-1.40;83.82
77454;BME280;66538;53.150;18.160;2023-02-04T03:45:45;102168.42;;;-1.43;83.67
77454;BME280;66538;53.150;18.160;2023-02-04T03:48:12;102174.83;;;-1.43;83.88
77454;BME280;66538;53.150;18.160;2023-02-04T03:50:39;102187.52;;;-1.45;83.89
77454;BME280;66538;53.150;18.160;2023-02-04T03:53:06;102188.89;;;-1.51;84.11
77454;BME280;66538;53.150;18.160;2023-02-04T03:55:32;102199.02;;;-1.55;84.24
77454;BME280;66538;53.150;18.160;2023-02-04T03:57:59;102205.05;;;-1.57;84.19
77454;BME280;66538;53.150;18.160;2023-02-04T04:00:26;102214.55;;;-1.56;84.30
77454;BME280;66538;53.150;18.160;2023-02-04T04:02:52;102223.52;;;-1.54;84.31
77454;BME280;66538;53.150;18.160;2023-02-04T04:05:19;102222.05;;;-1.62;84.35
77454;BME280;66538;53.150;18.160;2023-02-04T04:07:45;102229.51;;;-1.57;84.62
77454;BME280;66538;53.150;18.160;2023-02-04T04:10:12;102240.19;;;-1.59;84.53
77454;BME280;66538;53.150;18.160;2023-02-04T04:12:38;102245.71;;;-1.59;84.44
77454;BME280;66538;53.150;18.160;2023-02-04T04:15:05;102248.24;;;-1.57;84.86
77454;BME280;66538;53.150;18.160;2023-02-04T04:17:33;102251.68;;;-1.53;84.69
77454;BME280;66538;53.150;18.160;2023-02-04T04:19:59;102245.45;;;-1.61;84.75
77454;BME280;66538;53.150;18.160;2023-02-04T04:22:26;102246.14;;;-1.51;84.86
77454;BME280;66538;53.150;18.160;2023-02-04T04:24:53;102253.84;;;-1.46;84.70
77454;BME280;66538;53.150;18.160;2023-02-04T04:27:20;102257.55;;;-1.44;84.55
77454;BME280;66538;53.150;18.160;2023-02-04T04:29:47;102266.96;;;-1.45;84.71
77454;BME280;66538;53.150;18.160;2023-02-04T04:32:13;102263.17;;;-1.49;84.30
77454;BME280;66538;53.150;18.160;2023-02-04T04:34:40;102263.17;;;-1.46;84.63
77454;BME280;66538;53.150;18.160;2023-02-04T04:37:06;102273.80;;;-1.44;84.48
77454;BME280;66538;53.150;18.160;2023-02-04T04:39:33;102280.75;;;-1.40;84.41
77454;BME280;66538;53.150;18.160;2023-02-04T04:42:00;102288.35;;;-1.38;84.73
77454;BME280;66538;53.150;18.160;2023-02-04T04:44:26;102308.77;;;-1.26;84.49
77454;BME280;66538;53.150;18.160;2023-02-04T04:46:53;102325.27;;;-1.21;84.40
77454;BME280;66538;53.150;18.160;2023-02-04T04:49:20;102346.20;;;-1.17;84.46
77454;BME280;66538;53.150;18.160;2023-02-04T04:51:46;102361.98;;;-1.12;84.27
77454;BME280;66538;53.150;18.160;2023-02-04T04:54:13;102366.15;;;-1.05;84.02
77454;BME280;66538;53.150;18.160;2023-02-04T04:56:39;102363.17;;;-0.99;83.93
77454;BME280;66538;53.150;18.160;2023-02-04T04:59:06;102367.95;;;-0.93;84.13
77454;BME280;66538;53.150;18.160;2023-02-04T05:01:33;102372.20;;;-0.91;83.87
77454;BME280;66538;53.150;18.160;2023-02-04T05:03:59;102371.59;;;-0.89;84.26
77454;BME280;66538;53.150;18.160;2023-02-04T05:06:26;102371.90;;;-0.83;84.12
77454;BME280;66538;53.150;18.160;2023-02-04T05:08:53;102373.62;;;-0.81;84.00
77454;BME280;66538;53.150;18.160;2023-02-04T05:11:20;102373.40;;;-0.84;84.41
77454;BME280;66538;53.150;18.160;2023-02-04T05:13:47;102381.05;;;-0.86;84.01
77454;BME280;66538;53.150;18.160;2023-02-04T05:16:13;102385.95;;;-0.89;84.10
77454;BME280;66538;53.150;18.160;2023-02-04T05:18:41;102392.41;;;-0.93;83.96
77454;BME280;66538;53.150;18.160;2023-02-04T05:21:08;102393.73;;;-1.01;84.56
77454;BME280;66538;53.150;18.160;2023-02-04T05:23:34;102405.46;;;-1.01;84.38
77454;BME280;66538;53.150;18.160;2023-02-04T05:26:01;102408.44;;;-1.00;84.65
77454;BME280;66538;53.150;18.160;2023-02-04T05:28:27;102408.10;;;-1.00;84.84
77454;BME280;66538;53.150;18.160;2023-02-04T05:30:54;102410.45;;;-0.92;84.50
77454;BME280;66538;53.150;18.160;2023-02-04T05:33:20;102406.34;;;-0.88;84.49
77454;BME280;66538;53.150;18.160;2023-02-04T05:35:47;102407.81;;;-0.89;84.68
77454;BME280;66538;53.150;18.160;2023-02-04T05:38:14;102417.84;;;-0.70;84.35
77454;BME280;66538;53.150;18.160;2023-02-04T05:40:40;102430.44;;;-0.65;84.39
77454;BME280;66538;53.150;18.160;2023-02-04T05:43:07;102433.05;;;-0.64;84.18
77454;BME280;66538;53.150;18.160;2023-02-04T05:45:34;102439.67;;;-0.61;84.21
77454;BME280;66538;53.150;18.160;2023-02-04T05:48:01;102439.17;;;-0.58;84.24
77454;BME280;66538;53.150;18.160;2023-02-04T05:50:27;102449.21;;;-0.56;84.01
77454;BME280;66538;53.150;18.160;2023-02-04T05:53:08;102454.26;;;-0.56;84.06
77454;BME280;66538;53.150;18.160;2023-02-04T05:55:35;102445.14;;;-0.61;84.41
77454;BME280;66538;53.150;18.160;2023-02-04T05:58:01;102458.54;;;-0.58;84.43
77454;BME280;66538;53.150;18.160;2023-02-04T06:00:28;102464.20;;;-0.59;84.36
77454;BME280;66538;53.150;18.160;2023-02-04T06:02:54;102474.47;;;-0.54;84.31
77454;BME280;66538;53.150;18.160;2023-02-04T06:05:21;102485.88;;;-0.51;84.36
77454;BME280;66538;53.150;18.160;2023-02-04T06:07:49;102491.80;;;-0.48;84.62
77454;BME280;66538;53.150;18.160;2023-02-04T06:10:15;102495.41;;;-0.47;84.26
77454;BME280;66538;53.150;18.160;2023-02-04T06:12:42;102496.27;;;-0.46;84.41
77454;BME280;66538;53.150;18.160;2023-02-04T06:15:09;102498.15;;;-0.46;84.33
77454;BME280;66538;53.150;18.160;2023-02-04T06:17:37;102498.41;;;-0.46;84.34
77454;BME280;66538;53.150;18.160;2023-02-04T06:20:05;102507.17;;;-0.47;84.52
77454;BME280;66538;53.150;18.160;2023-02-04T06:22:32;102512.74;;;-0.47;84.50
77454;BME280;66538;53.150;18.160;2023-02-04T06:24:58;102517.70;;;-0.45;84.36
77454;BME280;66538;53.150;18.160;2023-02-04T06:27:25;102518.63;;;-0.49;84.44
77454;BME280;66538;53.150;18.160;2023-02-04T06:29:52;102518.70;;;-0.48;84.56
77454;BME280;66538;53.150;18.160;2023-02-04T06:32:20;102519.91;;;-0.43;84.38
77454;BME280;66538;53.150;18.160;2023-02-04T06:34:47;102526.41;;;-0.40;84.20
77454;BME280;66538;53.150;18.160;2023-02-04T06:37:13;102526.70;;;-0.36;84.38
77454;BME280;66538;53.150;18.160;2023-02-04T06:39:42;102529.34;;;-0.34;84.29
77454;BME280;66538;53.150;18.160;2023-02-04T06:42:09;102543.95;;;-0.29;84.27
77454;BME280;66538;53.150;18.160;2023-02-04T06:44:36;102539.02;;;-0.36;84.00
77454;BME280;66538;53.150;18.160;2023-02-04T06:47:02;102546.69;;;-0.37;83.88
77454;BME280;66538;53.150;18.160;2023-02-04T06:49:29;102553.82;;;-0.37;84.04
77454;BME280;66538;53.150;18.160;2023-02-04T06:51:55;102554.62;;;-0.48;84.05
77454;BME280;66538;53.150;18.160;2023-02-04T06:54:22;102554.64;;;-0.56;83.70
77454;BME280;66538;53.150;18.160;2023-02-04T06:56:49;102567.13;;;-0.54;83.64
77454;BME280;66538;53.150;18.160;2023-02-04T06:59:16;102574.77;;;-0.54;83.54
77454;BME280;66538;53.150;18.160;2023-02-04T07:01:43;102591.61;;;-0.43;83.19
77454;BME280;66538;53.150;18.160;2023-02-04T07:04:10;102595.27;;;-0.42;83.10
77454;BME280;66538;53.150;18.160;2023-02-04T07:06:36;102604.55;;;-0.46;82.78
77454;BME280;66538;53.150;18.160;2023-02-04T07:09:03;102603.86;;;-0.52;82.60
77454;BME280;66538;53.150;18.160;2023-02-04T07:11:29;102615.20;;;-0.55;82.88
77454;BME280;66538;53.150;18.160;2023-02-04T07:13:56;102619.02;;;-0.59;82.96
77454;BME280;66538;53.150;18.160;2023-02-04T07:16:22;102606.23;;;-0.86;83.09
77454;BME280;66538;53.150;18.160;2023-02-04T07:18:49;102613.48;;;-0.86;83.21
77454;BME280;66538;53.150;18.160;2023-02-04T07:21:16;102616.59;;;-0.90;83.45
77454;BME280;66538;53.150;18.160;2023-02-04T07:23:42;102618.63;;;-0.89;83.69
77454;BME280;66538;53.150;18.160;2023-02-04T07:26:09;102626.53;;;-0.88;83.62
77454;BME280;66538;53.150;18.160;2023-02-04T07:28:35;102630.97;;;-0.86;83.39
77454;BME280;66538;53.150;18.160;2023-02-04T07:31:02;102648.52;;;-0.73;83.23
77454;BME280;66538;53.150;18.160;2023-02-04T07:33:29;102656.29;;;-0.67;83.02
77454;BME280;66538;53.150;18.160;2023-02-04T07:35:55;102658.73;;;-0.67;83.31
77454;BME280;66538;53.150;18.160;2023-02-04T07:38:22;102662.38;;;-0.68;83.26
77454;BME280;66538;53.150;18.160;2023-02-04T07:40:48;102646.67;;;-0.92;83.22
77454;BME280;66538;53.150;18.160;2023-02-04T07:43:15;102658.71;;;-0.81;83.23
77454;BME280;66538;53.150;18.160;2023-02-04T07:45:42;102658.17;;;-0.83;83.09
77454;BME280;66538;53.150;18.160;2023-02-04T07:48:08;102666.36;;;-0.78;83.04
77454;BME280;66538;53.150;18.160;2023-02-04T07:50:36;102673.03;;;-0.69;83.10
77454;BME280;66538;53.150;18.160;2023-02-04T07:53:03;102677.46;;;-0.64;82.90
77454;BME280;66538;53.150;18.160;2023-02-04T07:55:29;102677.84;;;-0.66;82.50
77454;BME280;66538;53.150;18.160;2023-02-04T07:57:56;102686.29;;;-0.54;82.65
77454;BME280;66538;53.150;18.160;2023-02-04T08:00:23;102696.88;;;-0.50;82.65
77454;BME280;66538;53.150;18.160;2023-02-04T08:02:49;102702.00;;;-0.42;82.44
77454;BME280;66538;53.150;18.160;2023-02-04T08:05:16;102709.16;;;-0.37;82.35
77454;BME280;66538;53.150;18.160;2023-02-04T08:07:43;102718.77;;;-0.27;82.03
77454;BME280;66538;53.150;18.160;2023-02-04T08:10:10;102716.05;;;-0.15;82.12
77454;BME280;66538;53.150;18.160;2023-02-04T08:12:37;102720.17;;;-0.10;82.02
77454;BME280;66538;53.150;18.160;2023-02-04T08:15:04;102723.95;;;-0.11;81.95
77454;BME280;66538;53.150;18.160;2023-02-04T08:17:33;102726.02;;;-0.12;81.66
77454;BME280;66538;53.150;18.160;2023-02-04T08:20:00;102727.12;;;-0.13;81.69
77454;BME280;66538;53.150;18.160;2023-02-04T08:22:27;102732.45;;;-0.14;81.30
77454;BME280;66538;53.150;18.160;2023-02-04T08:24:53;102731.20;;;-0.14;81.32
77454;BME280;66538;53.150;18.160;2023-02-04T08:27:20;102746.77;;;0.03;80.93
77454;BME280;66538;53.150;18.160;2023-02-04T08:29:47;102750.25;;;0.04;80.42
77454;BME280;66538;53.150;18.160;2023-02-04T08:32:14;102744.64;;;-0.01;80.57
77454;BME280;66538;53.150;18.160;2023-02-04T08:34:41;102742.52;;;-0.15;80.71
77454;BME280;66538;53.150;18.160;2023-02-04T08:37:09;102745.47;;;-0.13;80.60
77454;BME280;66538;53.150;18.160;2023-02-04T08:39:35;102753.98;;;-0.07;80.62
77454;BME280;66538;53.150;18.160;2023-02-04T08:42:03;102755.81;;;-0.04;80.32
77454;BME280;66538;53.150;18.160;2023-02-04T08:44:30;102759.52;;;-0.04;80.54
77454;BME280;66538;53.150;18.160;2023-02-04T08:46:56;102765.45;;;-0.04;80.29
77454;BME280;66538;53.150;18.160;2023-02-04T08:49:23;102763.66;;;-0.06;80.27
77454;BME280;66538;53.150;18.160;2023-02-04T08:51:50;102759.88;;;-0.11;80.24
77454;BME280;66538;53.150;18.160;2023-02-04T08:54:16;102760.14;;;-0.06;80.52
77454;BME280;66538;53.150;18.160;2023-02-04T08:56:43;102778.91;;;0.18;80.10
77454;BME280;66538;53.150;18.160;2023-02-04T08:59:09;102775.46;;;0.30;79.71
77454;BME280;66538;53.150;18.160;2023-02-04T09:01:36;102783.87;;;0.36;79.38
77454;BME280;66538;53.150;18.160;2023-02-04T09:04:02;102775.15;;;0.36;79.59
77454;BME280;66538;53.150;18.160;2023-02-04T09:06:29;102780.59;;;0.32;79.03
77454;BME280;66538;53.150;18.160;2023-02-04T09:08:56;102779.18;;;0.32;79.29
77454;BME280;66538;53.150;18.160;2023-02-04T09:11:23;102783.85;;;0.37;79.87
77454;BME280;66538;53.150;18.160;2023-02-04T09:13:49;102797.25;;;0.57;79.36
77454;BME280;66538;53.150;18.160;2023-02-04T09:16:16;102811.73;;;0.84;79.19
77454;BME280;66538;53.150;18.160;2023-02-04T09:18:43;102813.79;;;0.97;78.87
77454;BME280;66538;53.150;18.160;2023-02-04T09:21:10;102803.90;;;1.03;78.77
77454;BME280;66538;53.150;18.160;2023-02-04T09:23:37;102793.32;;;0.83;78.61
77454;BME280;66538;53.150;18.160;2023-02-04T09:26:03;102813.80;;;0.96;77.93
77454;BME280;66538;53.150;18.160;2023-02-04T09:28:31;102821.65;;;1.13;77.40
77454;BME280;66538;53.150;18.160;2023-02-04T09:30:58;102824.27;;;1.18;77.73
77454;BME280;66538;53.150;18.160;2023-02-04T09:33:25;102829.37;;;1.17;77.27
77454;BME280;66538;53.150;18.160;2023-02-04T09:35:52;102815.10;;;0.95;76.70
77454;BME280;66538;53.150;18.160;2023-02-04T09:38:19;102821.09;;;1.01;77.02
77454;BME280;66538;53.150;18.160;2023-02-04T09:40:50;102835.62;;;1.21;76.48
77454;BME280;66538;53.150;18.160;2023-02-04T09:43:21;102844.06;;;1.41;76.54
77454;BME280;66538;53.150;18.160;2023-02-04T09:45:51;102841.43;;;1.45;77.08
77454;BME280;66538;53.150;18.160;2023-02-04T09:48:20;102832.72;;;1.37;76.35
77454;BME280;66538;53.150;18.160;2023-02-04T09:50:48;102818.92;;;1.18;76.16
77454;BME280;66538;53.150;18.160;2023-02-04T09:53:18;102835.89;;;1.49;75.80
77454;BME280;66538;53.150;18.160;2023-02-04T09:55:49;102837.05;;;1.60;75.56
77454;BME280;66538;53.150;18.160;2023-02-04T09:58:18;102837.85;;;1.64;75.16
77454;BME280;66538;53.150;18.160;2023-02-04T10:00:47;102832.04;;;1.55;75.03
77454;BME280;66538;53.150;18.160;2023-02-04T10:03:18;102818.77;;;1.39;74.97
77454;BME280;66538;53.150;18.160;2023-02-04T10:05:49;102827.64;;;1.46;74.98
77454;BME280;66538;53.150;18.160;2023-02-04T10:08:28;102846.69;;;1.73;74.14
77454;BME280;66538;53.150;18.160;2023-02-04T10:10:56;102848.54;;;1.69;73.97
77454;BME280;66538;53.150;18.160;2023-02-04T10:13:30;102850.52;;;1.64;73.40
77454;BME280;66538;53.150;18.160;2023-02-04T10:15:58;102845.05;;;1.58;74.31
77454;BME280;66538;53.150;18.160;2023-02-04T10:18:31;102833.48;;;1.36;73.70
77454;BME280;66538;53.150;18.160;2023-02-04T10:21:10;102846.11;;;1.52;74.19
77454;BME280;66538;53.150;18.160;2023-02-04T10:23:38;102860.84;;;1.66;74.37
77454;BME280;66538;53.150;18.160;2023-02-04T10:26:05;102860.14;;;1.73;72.45
77454;BME280;66538;53.150;18.160;2023-02-04T10:28:35;102851.60;;;1.66;73.32
77454;BME280;66538;53.150;18.160;2023-02-04T10:31:03;102849.52;;;1.58;72.91
77454;BME280;66538;53.150;18.160;2023-02-04T10:33:29;102861.38;;;1.79;73.25
77454;BME280;66538;53.150;18.160;2023-02-04T10:35:57;102869.00;;;1.82;72.15
77454;BME280;66538;53.150;18.160;2023-02-04T10:38:23;102864.26;;;1.72;72.66
77454;BME280;66538;53.150;18.160;2023-02-04T10:41:04;102858.98;;;1.62;72.02
77454;BME280;66538;53.150;18.160;2023-02-04T10:43:31;102867.40;;;1.65;72.37
77454;BME280;66538;53.150;18.160;2023-02-04T10:46:01;102865.08;;;1.70;72.57
77454;BME280;66538;53.150;18.160;2023-02-04T10:48:28;102872.77;;;1.80;72.57
77454;BME280;66538;53.150;18.160;2023-02-04T10:50:57;102876.45;;;1.92;73.13
77454;BME280;66538;53.150;18.160;2023-02-04T10:53:25;102875.12;;;1.91;72.16
77454;BME280;66538;53.150;18.160;2023-02-04T10:56:19;102874.02;;;1.98;72.35
77454;BME280;66538;53.150;18.160;2023-02-04T10:58:47;102881.36;;;2.10;71.77
77454;BME280;66538;53.150;18.160;2023-02-04T11:01:15;102880.18;;;2.37;71.33
77454;BME280;66538;53.150;18.160;2023-02-04T11:03:43;102881.41;;;2.67;70.89
77454;BME280;66538;53.150;18.160;2023-02-04T11:06:16;102886.48;;;2.96;69.63
77454;BME280;66538;53.150;18.160;2023-02-04T11:08:45;102893.84;;;3.17;70.22
77454;BME280;66538;53.150;18.160;2023-02-04T11:11:21;102900.49;;;3.21;69.04
77454;BME280;66538;53.150;18.160;2023-02-04T11:18:52;102892.93;;;3.10;69.12
77454;BME280;66538;53.150;18.160;2023-02-04T11:21:24;102885.15;;;3.09;69.68
77454;BME280;66538;53.150;18.160;2023-02-04T11:26:34;102898.58;;;3.30;69.28
77454;BME280;66538;53.150;18.160;2023-02-04T11:39:45;102904.11;;;3.26;69.91
77454;BME280;66538;53.150;18.160;2023-02-04T11:42:19;102910.59;;;3.27;69.82
77454;BME280;66538;53.150;18.160;2023-02-04T11:45:02;102912.67;;;3.26;70.51
77454;BME280;66538;53.150;18.160;2023-02-04T11:47:35;102913.49;;;3.18;70.53
77454;BME280;66538;53.150;18.160;2023-02-04T11:50:22;102915.50;;;3.03;70.66
77454;BME280;66538;53.150;18.160;2023-02-04T11:52:53;102932.70;;;3.03;69.96
77454;BME280;66538;53.150;18.160;2023-02-04T11:55:20;102931.92;;;2.96;69.82
77454;BME280;66538;53.150;18.160;2023-02-04T11:57:51;102935.21;;;2.95;70.49
77454;BME280;66538;53.150;18.160;2023-02-04T12:00:20;102923.73;;;2.90;70.97
77454;BME280;66538;53.150;18.160;2023-02-04T12:02:50;102925.68;;;2.81;70.44
77454;BME280;66538;53.150;18.160;2023-02-04T12:05:20;102922.45;;;2.92;70.79
77454;BME280;66538;53.150;18.160;2023-02-04T12:07:47;102923.55;;;3.07;69.81
77454;BME280;66538;53.150;18.160;2023-02-04T12:12:48;102936.52;;;3.60;69.69
77454;BME280;66538;53.150;18.160;2023-02-04T12:15:22;102935.13;;;3.88;68.67
77454;BME280;66538;53.150;18.160;2023-02-04T12:18:01;102926.06;;;3.88;68.23
77454;BME280;66538;53.150;18.160;2023-02-04T12:20:28;102930.52;;;3.86;67.89
77454;BME280;66538;53.150;18.160;2023-02-04T12:22:55;102933.86;;;3.86;68.11
77454;BME280;66538;53.150;18.160;2023-02-04T12:25:22;102941.44;;;3.95;67.22
77454;BME280;66538;53.150;18.160;2023-02-04T12:27:49;102946.11;;;3.93;67.90
77454;BME280;66538;53.150;18.160;2023-02-04T12:30:16;102947.42;;;3.86;68.17
77454;BME280;66538;53.150;18.160;2023-02-04T12:32:44;102937.34;;;3.69;68.32
77454;BME280;66538;53.150;18.160;2023-02-04T12:35:10;102938.96;;;3.63;68.78
77454;BME280;66538;53.150;18.160;2023-02-04T12:37:37;102947.42;;;3.59;67.98
77454;BME280;66538;53.150;18.160;2023-02-04T12:40:04;102952.25;;;3.64;67.42
77454;BME280;66538;53.150;18.160;2023-02-04T12:42:31;102958.13;;;3.47;67.77
77454;BME280;66538;53.150;18.160;2023-02-04T12:44:58;102954.63;;;3.27;68.50
77454;BME280;66538;53.150;18.160;2023-02-04T12:47:25;102961.98;;;3.15;68.48
77454;BME280;66538;53.150;18.160;2023-02-04T12:49:52;102954.56;;;2.98;68.43
77454;BME280;66538;53.150;18.160;2023-02-04T12:52:19;102955.28;;;3.08;68.75
77454;BME280;66538;53.150;18.160;2023-02-04T12:54:45;102949.33;;;3.27;68.50
77454;BME280;66538;53.150;18.160;2023-02-04T12:57:12;102958.15;;;3.59;66.82
77454;BME280;66538;53.150;18.160;2023-02-04T12:59:40;102965.73;;;3.79;67.17
77454;BME280;66538;53.150;18.160;2023-02-04T13:02:08;102963.41;;;3.86;66.86
77454;BME280;66538;53.150;18.160;2023-02-04T13:04:36;102962.99;;;3.62;67.47
77454;BME280;66538;53.150;18.160;2023-02-04T13:07:03;102966.52;;;3.43;67.49